sensor_id;sensor_type;location;lat;lon;timestamp;temperature;humidity
15656;DHT22;7928;43.614;1.456;2023-06-22T00:00:54;20.60;1.00
15656;DHT22;7928;43.614;1.456;2023-06-22T00:03:23;20.70;1.00
15656;DHT22;7928;43.614;1.456;2023-06-22T00:05:51;20.80;1.00
15656;DHT22;7928;43.614;1.456;2023-06-22T00:08:19;20.90;1.00
15656;DHT22;7928;43.614;1.456;2023-06-22T00:10:46;21.00;1.00
15656;DHT22;7928;43.614;1.456;2023-06-22T00:13:15;21.00;1.00
15656;DHT22;7928;43.614;1.456;2023-06-22T00:15:43;21.00;1.00
15656;DHT22;7928;43.614;1.456;2023-06-22T00:18:10;21.00;1.00
15656;DHT22;7928;43.614;1.456;2023-06-22T00:20:38;20.90;1.00
15656;DHT22;7928;43.614;1.456;2023-06-22T00:23:07;21.00;1.00
15656;DHT22;7928;43.614;1.456;2023-06-22T00:25:34;21.10;1.00
15656;DHT22;7928;43.614;1.456;2023-06-22T00:28:02;21.20;1.00
15656;DHT22;7928;43.614;1.456;2023-06-22T00:30:31;21.30;1.00
15656;DHT22;7928;43.614;1.456;2023-06-22T00:32:59;21.40;1.00
15656;DHT22;7928;43.614;1.456;2023-06-22T00:35:26;21.40;1.00
15656;DHT22;7928;43.614;1.456;2023-06-22T00:37:54;21.20;1.00
15656;DHT22;7928;43.614;1.456;2023-06-22T00:40:26;21.20;1.00
15656;DHT22;7928;43.614;1.456;2023-06-22T00:42:54;21.10;1.00
15656;DHT22;7928;43.614;1.456;2023-06-22T00:45:24;21.20;1.00
15656;DHT22;7928;43.614;1.456;2023-06-22T00:47:54;21.30;1.00
15656;DHT22;7928;43.614;1.456;2023-06-22T00:50:22;21.30;1.00
15656;DHT22;7928;43.614;1.456;2023-06-22T00:52:52;21.30;1.00
15656;DHT22;7928;43.614;1.456;2023-06-22T00:55:20;21.30;1.00
15656;DHT22;7928;43.614;1.456;2023-06-22T00:57:48;21.30;1.00
15656;DHT22;7928;43.614;1.456;2023-06-22T01:00:16;21.40;1.00
15656;DHT22;7928;43.614;1.456;2023-06-22T01:02:46;21.40;1.00
15656;DHT22;7928;43.614;1.456;2023-06-22T01:05:18;21.40;1.00
15656;DHT22;7928;43.614;1.456;2023-06-22T01:08:02;21.40;1.00
15656;DHT22;7928;43.614;1.456;2023-06-22T01:10:36;21.40;1.00
15656;DHT22;7928;43.614;1.456;2023-06-22T01:13:10;21.40;1.00
15656;DHT22;7928;43.614;1.456;2023-06-22T01:15:45;21.30;1.00
15656;DHT22;7928;43.614;1.456;2023-06-22T01:18:15;21.30;1.00
15656;DHT22;7928;43.614;1.456;2023-06-22T01:20:45;21.10;1.00
15656;DHT22;7928;43.614;1.456;2023-06-22T01:23:29;20.90;1.00
15656;DHT22;7928;43.614;1.456;2023-06-22T01:26:05;20.70;99.90
15656;DHT22;7928;43.614;1.456;2023-06-22T01:28:43;20.70;1.00
15656;DHT22;7928;43.614;1.456;2023-06-22T01:31:12;20.70;1.00
15656;DHT22;7928;43.614;1.456;2023-06-22T01:33:42;20.70;1.00
15656;DHT22;7928;43.614;1.456;2023-06-22T01:36:10;20.70;1.00
15656;DHT22;7928;43.614;1.456;2023-06-22T01:38:38;20.70;1.00
15656;DHT22;7928;43.614;1.456;2023-06-22T01:41:06;20.70;99.90
15656;DHT22;7928;43.614;1.456;2023-06-22T01:43:33;20.70;1.00
15656;DHT22;7928;43.614;1.456;2023-06-22T01:46:04;20.70;99.90
15656;DHT22;7928;43.614;1.456;2023-06-22T01:48:31;20.80;1.00
15656;DHT22;7928;43.614;1.456;2023-06-22T01:50:59;20.80;1.00
15656;DHT22;7928;43.614;1.456;2023-06-22T01:53:26;20.70;99.90
15656;DHT22;7928;43.614;1.456;2023-06-22T01:55:53;20.60;99.90
15656;DHT22;7928;43.614;1.456;2023-06-22T01:58:21;20.70;99.90
15656;DHT22;7928;43.614;1.456;2023-06-22T02:00:55;20.60;99.90
15656;DHT22;7928;43.614;1.456;2023-06-22T02:03:28;20.60;99.90
15656;DHT22;7928;43.614;1.456;2023-06-22T02:06:01;20.50;1.00
15656;DHT22;7928;43.614;1.456;2023-06-22T02:08:32;20.60;1.00
15656;DHT22;7928;43.614;1.456;2023-06-22T02:11:02;20.60;99.90
15656;DHT22;7928;43.614;1.456;2023-06-22T02:13:31;20.60;99.90
15656;DHT22;7928;43.614;1.456;2023-06-22T02:15:59;20.60;99.90
15656;DHT22;7928;43.614;1.456;2023-06-22T02:18:28;20.60;99.90
15656;DHT22;7928;43.614;1.456;2023-06-22T02:20:55;20.60;99.90
15656;DHT22;7928;43.614;1.456;2023-06-22T02:23:22;20.50;99.90
15656;DHT22;7928;43.614;1.456;2023-06-22T02:25:49;20.40;33.00
15656;DHT22;7928;43.614;1.456;2023-06-22T02:28:16;20.30;36.10
15656;DHT22;7928;43.614;1.456;2023-06-22T02:30:43;20.20;99.90
15656;DHT22;7928;43.614;1.456;2023-06-22T02:33:10;20.20;1.00
15656;DHT22;7928;43.614;1.456;2023-06-22T02:35:38;20.20;1.70
15656;DHT22;7928;43.614;1.456;2023-06-22T02:38:11;20.00;1.00
15656;DHT22;7928;43.614;1.456;2023-06-22T02:40:38;20.10;1.00
15656;DHT22;7928;43.614;1.456;2023-06-22T02:43:05;20.10;99.90
15656;DHT22;7928;43.614;1.456;2023-06-22T02:45:32;20.10;1.00
15656;DHT22;7928;43.614;1.456;2023-06-22T02:47:59;20.10;94.00
15656;DHT22;7928;43.614;1.456;2023-06-22T02:50:26;20.10;1.00
15656;DHT22;7928;43.614;1.456;2023-06-22T02:52:54;20.10;38.10
15656;DHT22;7928;43.614;1.456;2023-06-22T02:55:21;20.10;93.10
15656;DHT22;7928;43.614;1.456;2023-06-22T02:57:49;20.00;1.00
15656;DHT22;7928;43.614;1.456;2023-06-22T03:00:19;20.10;99.90
15656;DHT22;7928;43.614;1.456;2023-06-22T03:02:48;20.00;99.90
15656;DHT22;7928;43.614;1.456;2023-06-22T03:05:15;20.00;99.90
15656;DHT22;7928;43.614;1.456;2023-06-22T03:07:44;20.00;99.90
15656;DHT22;7928;43.614;1.456;2023-06-22T03:10:13;20.00;1.00
15656;DHT22;7928;43.614;1.456;2023-06-22T03:12:41;20.00;1.00
15656;DHT22;7928;43.614;1.456;2023-06-22T03:15:10;20.00;1.00
15656;DHT22;7928;43.614;1.456;2023-06-22T03:17:39;19.90;1.00
15656;DHT22;7928;43.614;1.456;2023-06-22T03:20:07;19.90;1.00
15656;DHT22;7928;43.614;1.456;2023-06-22T03:22:38;19.90;1.00
15656;DHT22;7928;43.614;1.456;2023-06-22T03:25:06;19.90;1.00
15656;DHT22;7928;43.614;1.456;2023-06-22T03:27:38;19.90;1.00
15656;DHT22;7928;43.614;1.456;2023-06-22T03:30:08;19.90;1.00
15656;DHT22;7928;43.614;1.456;2023-06-22T03:32:35;19.90;1.00
15656;DHT22;7928;43.614;1.456;2023-06-22T03:35:03;19.90;1.00
15656;DHT22;7928;43.614;1.456;2023-06-22T03:37:31;19.90;1.00
15656;DHT22;7928;43.614;1.456;2023-06-22T03:39:58;20.00;1.00
15656;DHT22;7928;43.614;1.456;2023-06-22T03:42:26;20.00;1.00
15656;DHT22;7928;43.614;1.456;2023-06-22T03:44:54;19.90;1.00
15656;DHT22;7928;43.614;1.456;2023-06-22T03:47:21;20.00;1.00
15656;DHT22;7928;43.614;1.456;2023-06-22T03:49:49;20.00;1.00
15656;DHT22;7928;43.614;1.456;2023-06-22T03:52:20;20.00;1.00
15656;DHT22;7928;43.614;1.456;2023-06-22T03:54:47;19.90;1.00
15656;DHT22;7928;43.614;1.456;2023-06-22T03:57:14;19.90;1.00
15656;DHT22;7928;43.614;1.456;2023-06-22T03:59:41;19.80;96.00
15656;DHT22;7928;43.614;1.456;2023-06-22T04:02:10;19.90;99.90
15656;DHT22;7928;43.614;1.456;2023-06-22T04:04:37;19.80;99.90
15656;DHT22;7928;43.614;1.456;2023-06-22T04:07:05;19.90;99.90
15656;DHT22;7928;43.614;1.456;2023-06-22T04:09:32;19.80;99.90
15656;DHT22;7928;43.614;1.456;2023-06-22T04:11:59;19.90;99.90
15656;DHT22;7928;43.614;1.456;2023-06-22T04:14:26;19.90;99.90
15656;DHT22;7928;43.614;1.456;2023-06-22T04:16:53;19.90;99.90
15656;DHT22;7928;43.614;1.456;2023-06-22T04:19:21;20.00;99.90
15656;DHT22;7928;43.614;1.456;2023-06-22T04:21:48;20.00;99.90
15656;DHT22;7928;43.614;1.456;2023-06-22T04:24:16;20.00;99.90
15656;DHT22;7928;43.614;1.456;2023-06-22T04:26:43;20.00;99.90
15656;DHT22;7928;43.614;1.456;2023-06-22T04:29:11;20.00;99.90
15656;DHT22;7928;43.614;1.456;2023-06-22T04:31:38;20.00;99.90
15656;DHT22;7928;43.614;1.456;2023-06-22T04:34:06;20.10;99.90
15656;DHT22;7928;43.614;1.456;2023-06-22T04:36:36;20.10;99.90
15656;DHT22;7928;43.614;1.456;2023-06-22T04:39:05;20.10;47.10
15656;DHT22;7928;43.614;1.456;2023-06-22T04:41:33;20.10;47.80
15656;DHT22;7928;43.614;1.456;2023-06-22T04:44:08;20.20;71.20
15656;DHT22;7928;43.614;1.456;2023-06-22T04:46:35;20.20;43.90
15656;DHT22;7928;43.614;1.456;2023-06-22T04:49:04;20.20;1.00
15656;DHT22;7928;43.614;1.456;2023-06-22T04:51:38;20.10;44.10
15656;DHT22;7928;43.614;1.456;2023-06-22T04:54:05;20.10;1.00
15656;DHT22;7928;43.614;1.456;2023-06-22T04:56:33;20.10;99.90
15656;DHT22;7928;43.614;1.456;2023-06-22T04:59:00;20.20;71.80
15656;DHT22;7928;43.614;1.456;2023-06-22T05:01:28;20.10;1.00
15656;DHT22;7928;43.614;1.456;2023-06-22T05:03:56;20.10;36.90
15656;DHT22;7928;43.614;1.456;2023-06-22T05:06:26;20.10;98.30
15656;DHT22;7928;43.614;1.456;2023-06-22T05:08:56;20.10;99.90
15656;DHT22;7928;43.614;1.456;2023-06-22T05:11:24;20.10;10.00
15656;DHT22;7928;43.614;1.456;2023-06-22T05:13:51;20.10;99.90
15656;DHT22;7928;43.614;1.456;2023-06-22T05:16:19;20.20;1.00
15656;DHT22;7928;43.614;1.456;2023-06-22T05:18:50;20.20;1.00
15656;DHT22;7928;43.614;1.456;2023-06-22T05:21:18;20.30;1.00
15656;DHT22;7928;43.614;1.456;2023-06-22T05:23:45;20.40;1.00
15656;DHT22;7928;43.614;1.456;2023-06-22T05:26:14;20.30;1.00
15656;DHT22;7928;43.614;1.456;2023-06-22T05:28:41;20.40;1.00
15656;DHT22;7928;43.614;1.456;2023-06-22T05:31:11;20.50;99.90
15656;DHT22;7928;43.614;1.456;2023-06-22T05:33:39;20.50;1.00
15656;DHT22;7928;43.614;1.456;2023-06-22T05:36:06;20.60;99.90
15656;DHT22;7928;43.614;1.456;2023-06-22T05:38:33;20.60;27.10
15656;DHT22;7928;43.614;1.456;2023-06-22T05:41:00;20.50;99.90
15656;DHT22;7928;43.614;1.456;2023-06-22T05:43:28;20.50;99.90
15656;DHT22;7928;43.614;1.456;2023-06-22T05:45:56;20.50;99.90
15656;DHT22;7928;43.614;1.456;2023-06-22T05:48:23;20.40;99.90
15656;DHT22;7928;43.614;1.456;2023-06-22T05:50:50;20.50;99.90
15656;DHT22;7928;43.614;1.456;2023-06-22T05:53:17;20.50;1.00
15656;DHT22;7928;43.614;1.456;2023-06-22T05:55:44;20.40;99.90
15656;DHT22;7928;43.614;1.456;2023-06-22T05:58:11;20.50;1.00
15656;DHT22;7928;43.614;1.456;2023-06-22T06:00:40;20.50;99.90
15656;DHT22;7928;43.614;1.456;2023-06-22T06:03:08;20.60;99.90
15656;DHT22;7928;43.614;1.456;2023-06-22T06:05:36;20.70;99.90
15656;DHT22;7928;43.614;1.456;2023-06-22T06:08:05;20.70;36.40
15656;DHT22;7928;43.614;1.456;2023-06-22T06:10:33;20.70;1.00
15656;DHT22;7928;43.614;1.456;2023-06-22T06:13:00;20.60;1.00
15656;DHT22;7928;43.614;1.456;2023-06-22T06:15:30;20.60;1.00
15656;DHT22;7928;43.614;1.456;2023-06-22T06:17:59;20.60;99.90
15656;DHT22;7928;43.614;1.456;2023-06-22T06:20:26;20.60;98.60
15656;DHT22;7928;43.614;1.456;2023-06-22T06:22:54;20.50;99.90
15656;DHT22;7928;43.614;1.456;2023-06-22T06:25:22;20.60;99.90
15656;DHT22;7928;43.614;1.456;2023-06-22T06:27:50;20.60;99.90
15656;DHT22;7928;43.614;1.456;2023-06-22T06:30:20;20.80;1.00
15656;DHT22;7928;43.614;1.456;2023-06-22T06:32:48;20.80;99.90
15656;DHT22;7928;43.614;1.456;2023-06-22T06:35:16;20.80;99.90
15656;DHT22;7928;43.614;1.456;2023-06-22T06:37:44;20.90;99.90
15656;DHT22;7928;43.614;1.456;2023-06-22T06:40:12;21.00;1.00
15656;DHT22;7928;43.614;1.456;2023-06-22T06:42:41;21.10;1.00
15656;DHT22;7928;43.614;1.456;2023-06-22T06:45:11;21.30;1.00
15656;DHT22;7928;43.614;1.456;2023-06-22T06:47:38;21.40;99.90
15656;DHT22;7928;43.614;1.456;2023-06-22T06:50:06;21.40;1.00
15656;DHT22;7928;43.614;1.456;2023-06-22T06:52:35;21.50;57.60
15656;DHT22;7928;43.614;1.456;2023-06-22T06:55:03;21.40;1.00
15656;DHT22;7928;43.614;1.456;2023-06-22T06:57:33;21.40;1.00
15656;DHT22;7928;43.614;1.456;2023-06-22T07:00:01;21.40;1.00
15656;DHT22;7928;43.614;1.456;2023-06-22T07:02:35;21.40;1.00
15656;DHT22;7928;43.614;1.456;2023-06-22T07:05:03;21.50;1.00
15656;DHT22;7928;43.614;1.456;2023-06-22T07:07:30;21.50;1.00
15656;DHT22;7928;43.614;1.456;2023-06-22T07:09:58;21.50;99.90
15656;DHT22;7928;43.614;1.456;2023-06-22T07:12:25;21.40;99.90
15656;DHT22;7928;43.614;1.456;2023-06-22T07:14:52;21.50;99.90
15656;DHT22;7928;43.614;1.456;2023-06-22T07:17:19;21.70;99.90
15656;DHT22;7928;43.614;1.456;2023-06-22T07:19:46;21.90;99.90
15656;DHT22;7928;43.614;1.456;2023-06-22T07:22:13;22.00;99.90
15656;DHT22;7928;43.614;1.456;2023-06-22T07:24:40;22.10;99.90
15656;DHT22;7928;43.614;1.456;2023-06-22T07:27:09;22.10;99.90
15656;DHT22;7928;43.614;1.456;2023-06-22T07:29:38;22.00;99.90
15656;DHT22;7928;43.614;1.456;2023-06-22T07:32:06;21.90;99.90
15656;DHT22;7928;43.614;1.456;2023-06-22T07:34:34;21.90;99.90
15656;DHT22;7928;43.614;1.456;2023-06-22T07:37:01;22.00;99.90
15656;DHT22;7928;43.614;1.456;2023-06-22T07:39:28;22.10;99.90
15656;DHT22;7928;43.614;1.456;2023-06-22T07:41:55;22.10;99.90
15656;DHT22;7928;43.614;1.456;2023-06-22T07:44:23;22.00;99.90
15656;DHT22;7928;43.614;1.456;2023-06-22T07:46:50;22.00;99.90
15656;DHT22;7928;43.614;1.456;2023-06-22T07:49:17;22.10;99.90
15656;DHT22;7928;43.614;1.456;2023-06-22T07:51:44;22.30;99.90
15656;DHT22;7928;43.614;1.456;2023-06-22T07:54:11;22.50;99.90
15656;DHT22;7928;43.614;1.456;2023-06-22T07:56:41;22.70;99.90
15656;DHT22;7928;43.614;1.456;2023-06-22T07:59:08;23.00;99.90
15656;DHT22;7928;43.614;1.456;2023-06-22T08:01:37;23.10;99.90
15656;DHT22;7928;43.614;1.456;2023-06-22T08:04:04;23.10;99.90
15656;DHT22;7928;43.614;1.456;2023-06-22T08:06:31;23.20;99.90
15656;DHT22;7928;43.614;1.456;2023-06-22T08:08:58;23.40;99.90
15656;DHT22;7928;43.614;1.456;2023-06-22T08:11:25;23.40;99.90
15656;DHT22;7928;43.614;1.456;2023-06-22T08:13:53;23.80;99.90
15656;DHT22;7928;43.614;1.456;2023-06-22T08:16:21;24.20;99.90
15656;DHT22;7928;43.614;1.456;2023-06-22T08:18:50;24.50;99.90
15656;DHT22;7928;43.614;1.456;2023-06-22T08:21:17;24.10;99.90
15656;DHT22;7928;43.614;1.456;2023-06-22T08:23:44;23.80;99.90
15656;DHT22;7928;43.614;1.456;2023-06-22T08:26:11;23.50;99.90
15656;DHT22;7928;43.614;1.456;2023-06-22T08:28:38;23.30;99.90
15656;DHT22;7928;43.614;1.456;2023-06-22T08:31:05;23.10;99.90
15656;DHT22;7928;43.614;1.456;2023-06-22T08:33:32;23.00;99.90
15656;DHT22;7928;43.614;1.456;2023-06-22T08:36:00;23.00;99.90
15656;DHT22;7928;43.614;1.456;2023-06-22T08:38:27;23.00;99.90
15656;DHT22;7928;43.614;1.456;2023-06-22T08:40:54;22.70;99.90
15656;DHT22;7928;43.614;1.456;2023-06-22T08:43:21;22.50;99.90
15656;DHT22;7928;43.614;1.456;2023-06-22T08:45:48;22.30;99.90
15656;DHT22;7928;43.614;1.456;2023-06-22T08:48:15;22.20;99.90
15656;DHT22;7928;43.614;1.456;2023-06-22T08:50:42;22.10;99.90
15656;DHT22;7928;43.614;1.456;2023-06-22T08:53:10;22.30;99.90
15656;DHT22;7928;43.614;1.456;2023-06-22T08:55:37;22.40;99.90
15656;DHT22;7928;43.614;1.456;2023-06-22T08:58:04;22.40;99.90
15656;DHT22;7928;43.614;1.456;2023-06-22T09:00:32;22.30;99.90
15656;DHT22;7928;43.614;1.456;2023-06-22T09:03:00;22.30;99.90
15656;DHT22;7928;43.614;1.456;2023-06-22T09:05:27;22.10;1.00
15656;DHT22;7928;43.614;1.456;2023-06-22T09:07:56;21.90;8.40
15656;DHT22;7928;43.614;1.456;2023-06-22T09:10:25;21.70;1.00
15656;DHT22;7928;43.614;1.456;2023-06-22T09:12:52;21.60;1.00
15656;DHT22;7928;43.614;1.456;2023-06-22T09:15:19;21.70;99.90
15656;DHT22;7928;43.614;1.456;2023-06-22T09:17:47;21.60;99.90
15656;DHT22;7928;43.614;1.456;2023-06-22T09:20:14;21.60;1.00
15656;DHT22;7928;43.614;1.456;2023-06-22T09:22:41;21.90;1.00
15656;DHT22;7928;43.614;1.456;2023-06-22T09:25:08;22.10;99.90
15656;DHT22;7928;43.614;1.456;2023-06-22T09:27:37;22.10;99.90
15656;DHT22;7928;43.614;1.456;2023-06-22T09:30:05;22.20;1.00
15656;DHT22;7928;43.614;1.456;2023-06-22T09:32:32;22.10;99.90
15656;DHT22;7928;43.614;1.456;2023-06-22T09:35:04;22.20;1.00
15656;DHT22;7928;43.614;1.456;2023-06-22T09:37:32;22.30;99.90
15656;DHT22;7928;43.614;1.456;2023-06-22T09:39:59;22.30;1.00
15656;DHT22;7928;43.614;1.456;2023-06-22T09:42:26;22.50;99.90
15656;DHT22;7928;43.614;1.456;2023-06-22T09:44:54;22.70;99.90
15656;DHT22;7928;43.614;1.456;2023-06-22T09:47:21;22.80;1.00
15656;DHT22;7928;43.614;1.456;2023-06-22T09:49:48;23.00;1.00
15656;DHT22;7928;43.614;1.456;2023-06-22T09:52:15;23.00;1.00
15656;DHT22;7928;43.614;1.456;2023-06-22T09:54:43;23.00;1.00
15656;DHT22;7928;43.614;1.456;2023-06-22T09:57:10;23.20;1.00
15656;DHT22;7928;43.614;1.456;2023-06-22T09:59:37;23.40;99.90
15656;DHT22;7928;43.614;1.456;2023-06-22T10:02:07;23.60;1.00
15656;DHT22;7928;43.614;1.456;2023-06-22T10:04:34;23.70;1.00
15656;DHT22;7928;43.614;1.456;2023-06-22T10:07:02;23.80;1.00
15656;DHT22;7928;43.614;1.456;2023-06-22T10:09:29;23.60;1.00
15656;DHT22;7928;43.614;1.456;2023-06-22T10:11:56;23.80;99.90
15656;DHT22;7928;43.614;1.456;2023-06-22T10:14:23;23.80;99.90
15656;DHT22;7928;43.614;1.456;2023-06-22T10:16:52;23.60;99.90
15656;DHT22;7928;43.614;1.456;2023-06-22T10:19:21;23.50;99.90
15656;DHT22;7928;43.614;1.456;2023-06-22T10:21:47;23.60;1.00
15656;DHT22;7928;43.614;1.456;2023-06-22T10:24:15;23.60;1.00
15656;DHT22;7928;43.614;1.456;2023-06-22T10:26:42;24.00;1.00
15656;DHT22;7928;43.614;1.456;2023-06-22T10:29:09;24.20;99.90
15656;DHT22;7928;43.614;1.456;2023-06-22T10:31:36;24.70;50.70
15656;DHT22;7928;43.614;1.456;2023-06-22T10:34:03;25.10;1.00
15656;DHT22;7928;43.614;1.456;2023-06-22T10:36:31;25.40;99.90
15656;DHT22;7928;43.614;1.456;2023-06-22T10:38:58;25.50;99.90
15656;DHT22;7928;43.614;1.456;2023-06-22T10:41:27;25.70;99.90
15656;DHT22;7928;43.614;1.456;2023-06-22T10:43:55;25.90;99.90
15656;DHT22;7928;43.614;1.456;2023-06-22T10:46:24;26.20;99.90
15656;DHT22;7928;43.614;1.456;2023-06-22T10:48:51;25.90;99.90
15656;DHT22;7928;43.614;1.456;2023-06-22T10:51:20;26.10;99.90
15656;DHT22;7928;43.614;1.456;2023-06-22T10:53:48;26.50;99.90
15656;DHT22;7928;43.614;1.456;2023-06-22T10:56:16;26.70;99.90
15656;DHT22;7928;43.614;1.456;2023-06-22T10:58:45;26.60;99.90
15656;DHT22;7928;43.614;1.456;2023-06-22T11:01:12;26.80;99.90
15656;DHT22;7928;43.614;1.456;2023-06-22T11:03:39;27.30;99.90
15656;DHT22;7928;43.614;1.456;2023-06-22T11:06:06;27.40;99.90
15656;DHT22;7928;43.614;1.456;2023-06-22T11:08:33;27.60;99.90
15656;DHT22;7928;43.614;1.456;2023-06-22T11:11:01;27.70;99.90
15656;DHT22;7928;43.614;1.456;2023-06-22T11:13:28;27.70;99.90
15656;DHT22;7928;43.614;1.456;2023-06-22T11:15:55;27.80;99.90
15656;DHT22;7928;43.614;1.456;2023-06-22T11:18:22;27.70;99.90
15656;DHT22;7928;43.614;1.456;2023-06-22T11:20:49;27.40;99.90
15656;DHT22;7928;43.614;1.456;2023-06-22T11:23:16;27.40;99.90
15656;DHT22;7928;43.614;1.456;2023-06-22T11:25:43;27.10;99.90
15656;DHT22;7928;43.614;1.456;2023-06-22T11:28:11;26.60;99.90
15656;DHT22;7928;43.614;1.456;2023-06-22T11:30:38;27.10;99.90
15656;DHT22;7928;43.614;1.456;2023-06-22T11:33:05;27.60;99.90
15656;DHT22;7928;43.614;1.456;2023-06-22T11:35:32;28.30;99.90
15656;DHT22;7928;43.614;1.456;2023-06-22T11:37:59;28.40;99.90
15656;DHT22;7928;43.614;1.456;2023-06-22T11:40:26;29.70;99.90
15656;DHT22;7928;43.614;1.456;2023-06-22T11:42:53;29.80;99.90
15656;DHT22;7928;43.614;1.456;2023-06-22T11:45:22;29.80;99.90
15656;DHT22;7928;43.614;1.456;2023-06-22T11:47:49;30.10;99.90
15656;DHT22;7928;43.614;1.456;2023-06-22T11:50:16;30.70;99.90
15656;DHT22;7928;43.614;1.456;2023-06-22T11:52:43;31.20;99.90
15656;DHT22;7928;43.614;1.456;2023-06-22T11:55:09;31.90;99.90
15656;DHT22;7928;43.614;1.456;2023-06-22T11:57:38;32.00;99.90
15656;DHT22;7928;43.614;1.456;2023-06-22T12:00:06;31.40;99.90
15656;DHT22;7928;43.614;1.456;2023-06-22T12:02:42;30.10;99.90
15656;DHT22;7928;43.614;1.456;2023-06-22T12:05:10;30.70;99.90
15656;DHT22;7928;43.614;1.456;2023-06-22T12:07:38;31.80;99.90
15656;DHT22;7928;43.614;1.456;2023-06-22T12:10:06;31.50;99.90
15656;DHT22;7928;43.614;1.456;2023-06-22T12:12:33;31.10;99.90
15656;DHT22;7928;43.614;1.456;2023-06-22T12:15:00;31.90;99.90
15656;DHT22;7928;43.614;1.456;2023-06-22T12:17:29;32.70;99.90
15656;DHT22;7928;43.614;1.456;2023-06-22T12:19:58;33.00;99.90
15656;DHT22;7928;43.614;1.456;2023-06-22T12:22:25;32.70;99.90
15656;DHT22;7928;43.614;1.456;2023-06-22T12:24:52;32.50;99.90
15656;DHT22;7928;43.614;1.456;2023-06-22T12:27:19;32.60;99.90
15656;DHT22;7928;43.614;1.456;2023-06-22T12:29:46;33.30;99.90
15656;DHT22;7928;43.614;1.456;2023-06-22T12:32:14;32.10;99.90
15656;DHT22;7928;43.614;1.456;2023-06-22T12:34:42;31.20;99.90
15656;DHT22;7928;43.614;1.456;2023-06-22T12:37:11;30.90;99.90
15656;DHT22;7928;43.614;1.456;2023-06-22T12:39:41;29.70;99.90
15656;DHT22;7928;43.614;1.456;2023-06-22T12:42:08;29.60;99.90
15656;DHT22;7928;43.614;1.456;2023-06-22T12:44:38;29.30;99.90
15656;DHT22;7928;43.614;1.456;2023-06-22T12:47:05;29.00;99.90
15656;DHT22;7928;43.614;1.456;2023-06-22T12:49:33;28.40;99.90
15656;DHT22;7928;43.614;1.456;2023-06-22T12:52:01;28.30;99.90
15656;DHT22;7928;43.614;1.456;2023-06-22T12:54:29;28.30;99.90
15656;DHT22;7928;43.614;1.456;2023-06-22T12:56:56;28.00;99.90
15656;DHT22;7928;43.614;1.456;2023-06-22T12:59:23;27.80;99.90
15656;DHT22;7928;43.614;1.456;2023-06-22T13:01:51;27.40;99.90
15656;DHT22;7928;43.614;1.456;2023-06-22T13:04:18;27.20;99.90
15656;DHT22;7928;43.614;1.456;2023-06-22T13:06:45;27.60;99.90
15656;DHT22;7928;43.614;1.456;2023-06-22T13:09:14;28.40;99.90
15656;DHT22;7928;43.614;1.456;2023-06-22T13:11:43;28.30;99.90
15656;DHT22;7928;43.614;1.456;2023-06-22T13:14:10;28.40;99.90
15656;DHT22;7928;43.614;1.456;2023-06-22T13:16:37;28.20;99.90
15656;DHT22;7928;43.614;1.456;2023-06-22T13:19:04;27.90;99.90
15656;DHT22;7928;43.614;1.456;2023-06-22T13:21:31;27.80;99.90
15656;DHT22;7928;43.614;1.456;2023-06-22T13:23:59;28.70;99.90
15656;DHT22;7928;43.614;1.456;2023-06-22T13:26:26;29.10;99.90
15656;DHT22;7928;43.614;1.456;2023-06-22T13:28:56;29.40;99.90
15656;DHT22;7928;43.614;1.456;2023-06-22T13:31:23;29.30;99.90
15656;DHT22;7928;43.614;1.456;2023-06-22T13:33:50;28.90;99.90
15656;DHT22;7928;43.614;1.456;2023-06-22T13:36:18;28.80;99.90
15656;DHT22;7928;43.614;1.456;2023-06-22T13:38:45;28.10;99.90
15656;DHT22;7928;43.614;1.456;2023-06-22T13:41:12;28.80;99.90
15656;DHT22;7928;43.614;1.456;2023-06-22T13:43:39;29.80;99.90
15656;DHT22;7928;43.614;1.456;2023-06-22T13:46:08;29.30;99.90
15656;DHT22;7928;43.614;1.456;2023-06-22T13:48:35;29.00;99.90
15656;DHT22;7928;43.614;1.456;2023-06-22T13:51:02;29.80;99.90
15656;DHT22;7928;43.614;1.456;2023-06-22T13:53:29;30.30;99.90
15656;DHT22;7928;43.614;1.456;2023-06-22T13:55:56;30.10;99.90
15656;DHT22;7928;43.614;1.456;2023-06-22T13:58:23;30.90;99.90
15656;DHT22;7928;43.614;1.456;2023-06-22T14:00:50;31.10;99.90
15656;DHT22;7928;43.614;1.456;2023-06-22T14:03:18;31.60;99.90
15656;DHT22;7928;43.614;1.456;2023-06-22T14:05:45;32.00;99.90
15656;DHT22;7928;43.614;1.456;2023-06-22T14:08:12;32.40;99.90
15656;DHT22;7928;43.614;1.456;2023-06-22T14:10:40;33.10;99.90
15656;DHT22;7928;43.614;1.456;2023-06-22T14:13:07;33.10;99.90
15656;DHT22;7928;43.614;1.456;2023-06-22T14:15:34;32.30;99.90
15656;DHT22;7928;43.614;1.456;2023-06-22T14:18:01;31.50;99.90
15656;DHT22;7928;43.614;1.456;2023-06-22T14:20:29;31.40;99.90
15656;DHT22;7928;43.614;1.456;2023-06-22T14:22:56;30.90;99.90
15656;DHT22;7928;43.614;1.456;2023-06-22T14:25:23;29.90;99.90
15656;DHT22;7928;43.614;1.456;2023-06-22T14:27:50;29.60;99.90
15656;DHT22;7928;43.614;1.456;2023-06-22T14:30:17;29.30;99.90
15656;DHT22;7928;43.614;1.456;2023-06-22T14:32:44;29.00;99.90
15656;DHT22;7928;43.614;1.456;2023-06-22T14:35:11;28.80;99.90
15656;DHT22;7928;43.614;1.456;2023-06-22T14:37:40;28.50;99.90
15656;DHT22;7928;43.614;1.456;2023-06-22T14:40:07;28.40;99.90
15656;DHT22;7928;43.614;1.456;2023-06-22T14:42:34;28.20;99.90
15656;DHT22;7928;43.614;1.456;2023-06-22T14:45:01;28.20;99.90
15656;DHT22;7928;43.614;1.456;2023-06-22T14:47:28;28.90;99.90
15656;DHT22;7928;43.614;1.456;2023-06-22T14:49:55;29.00;99.90
15656;DHT22;7928;43.614;1.456;2023-06-22T14:52:22;29.60;99.90
15656;DHT22;7928;43.614;1.456;2023-06-22T14:54:50;30.70;99.90
15656;DHT22;7928;43.614;1.456;2023-06-22T14:57:18;30.80;99.90
15656;DHT22;7928;43.614;1.456;2023-06-22T14:59:45;30.20;99.90
15656;DHT22;7928;43.614;1.456;2023-06-22T15:02:13;29.10;99.90
15656;DHT22;7928;43.614;1.456;2023-06-22T15:04:40;28.20;99.90
15656;DHT22;7928;43.614;1.456;2023-06-22T15:07:07;28.30;99.90
15656;DHT22;7928;43.614;1.456;2023-06-22T15:09:34;28.10;99.90
15656;DHT22;7928;43.614;1.456;2023-06-22T15:12:02;28.50;99.90
15656;DHT22;7928;43.614;1.456;2023-06-22T15:14:33;28.70;99.90
15656;DHT22;7928;43.614;1.456;2023-06-22T15:17:00;29.10;99.90
15656;DHT22;7928;43.614;1.456;2023-06-22T15:19:27;29.90;99.90
15656;DHT22;7928;43.614;1.456;2023-06-22T15:21:54;30.50;99.90
15656;DHT22;7928;43.614;1.456;2023-06-22T15:24:21;31.20;99.90
15656;DHT22;7928;43.614;1.456;2023-06-22T15:26:48;31.10;99.90
15656;DHT22;7928;43.614;1.456;2023-06-22T15:29:16;30.30;99.90
15656;DHT22;7928;43.614;1.456;2023-06-22T15:31:43;29.80;99.90
15656;DHT22;7928;43.614;1.456;2023-06-22T15:34:13;29.40;99.90
15656;DHT22;7928;43.614;1.456;2023-06-22T15:36:40;28.50;99.90
15656;DHT22;7928;43.614;1.456;2023-06-22T15:39:07;28.00;99.90
15656;DHT22;7928;43.614;1.456;2023-06-22T15:41:34;27.70;99.90
15656;DHT22;7928;43.614;1.456;2023-06-22T15:44:01;27.20;99.90
15656;DHT22;7928;43.614;1.456;2023-06-22T15:46:29;26.70;99.90
15656;DHT22;7928;43.614;1.456;2023-06-22T15:48:56;26.60;99.90
15656;DHT22;7928;43.614;1.456;2023-06-22T15:51:23;26.60;99.90
15656;DHT22;7928;43.614;1.456;2023-06-22T15:53:50;26.90;99.90